createdAt,value
2018-04-12T00:00:36.091Z,95.97
2018-04-12T00:03:04.481Z,86.83
2018-04-12T00:05:33.042Z,102.70
2018-04-12T00:08:01.449Z,93.77
2018-04-12T00:10:29.860Z,97.10
2018-04-12T00:12:58.264Z,88.23
2018-04-12T00:15:26.762Z,86.73
2018-04-12T00:17:55.305Z,88.83
2018-04-12T00:20:23.725Z,90.93
2018-04-12T00:22:53.028Z,89.90
2018-04-12T00:25:21.454Z,85.90
2018-04-12T00:27:49.870Z,81.80
2018-04-12T00:30:18.327Z,84.60
2018-04-12T00:32:46.754Z,78.00
2018-04-12T00:35:15.214Z,80.00
2018-04-12T00:37:43.620Z,73.57
2018-04-12T00:40:12.024Z,76.63
2018-04-12T00:42:40.481Z,74.33
2018-04-12T00:45:08.865Z,77.47
2018-04-12T00:47:37.261Z,81.17
2018-04-12T00:50:05.658Z,79.37
2018-04-12T00:52:34.064Z,77.40
2018-04-12T00:55:02.522Z,76.27
2018-04-12T00:57:30.904Z,75.17
2018-04-12T00:59:59.349Z,73.60
2018-04-12T01:02:27.754Z,79.43
2018-04-12T01:04:56.150Z,74.63
2018-04-12T01:07:24.597Z,88.13
2018-04-12T01:09:52.984Z,71.63
2018-04-12T01:12:21.406Z,76.10
2018-04-12T01:14:49.784Z,76.47
2018-04-12T01:17:18.182Z,72.27
2018-04-12T01:19:46.671Z,69.37
2018-04-12T01:22:18.249Z,74.03
2018-04-12T01:24:46.732Z,81.77
2018-04-12T01:27:15.463Z,71.80
2018-04-12T01:29:43.843Z,75.43
2018-04-12T01:32:12.213Z,80.60
2018-04-12T01:34:40.587Z,72.30
2018-04-12T01:37:08.990Z,74.80
2018-04-12T01:39:37.448Z,74.50
2018-04-12T01:42:05.809Z,75.00
2018-04-12T01:44:34.181Z,72.50
2018-04-12T01:47:02.549Z,74.20
2018-04-12T01:49:30.927Z,74.30
2018-04-12T01:51:59.485Z,71.03
2018-04-12T01:54:27.854Z,72.40
2018-04-12T01:56:56.214Z,79.60
2018-04-12T01:59:24.575Z,71.23
2018-04-12T02:01:52.931Z,76.57
2018-04-12T02:04:21.323Z,78.50
2018-04-12T02:06:49.698Z,85.37
2018-04-12T02:09:18.079Z,74.53
2018-04-12T02:11:46.465Z,78.60
2018-04-12T02:14:14.830Z,80.83
2018-04-12T02:16:43.202Z,77.00
2018-04-12T02:19:11.609Z,79.27
2018-04-12T02:21:39.968Z,80.80
2018-04-12T02:24:08.336Z,79.83
2018-04-12T02:26:36.817Z,78.30
2018-04-12T02:29:05.367Z,76.90
2018-04-12T02:31:33.744Z,78.43
2018-04-12T02:34:02.137Z,77.53
2018-04-12T02:36:30.511Z,82.80
2018-04-12T02:38:58.963Z,85.97
2018-04-12T02:41:27.339Z,91.83
2018-04-12T02:43:55.713Z,85.77
2018-04-12T02:46:24.112Z,89.30
2018-04-12T02:48:52.506Z,91.77
2018-04-12T02:51:20.894Z,93.47
2018-04-12T02:53:49.307Z,90.77
2018-04-12T02:56:17.669Z,96.90
2018-04-12T02:58:46.262Z,93.87
2018-04-12T03:01:14.637Z,95.10
2018-04-12T03:03:43.027Z,92.77
2018-04-12T03:06:11.398Z,97.20
2018-04-12T03:08:39.871Z,102.93
2018-04-12T03:11:08.332Z,96.23
2018-04-12T03:13:36.699Z,108.00
2018-04-12T03:16:05.077Z,102.93
2018-04-12T03:18:33.605Z,93.30
2018-04-12T03:21:01.975Z,95.90
2018-04-12T03:23:30.427Z,99.40
2018-04-12T03:25:58.793Z,99.07
2018-04-12T03:28:27.337Z,98.33
2018-04-12T03:30:55.710Z,87.43
2018-04-12T03:33:24.146Z,103.57
2018-04-12T03:35:52.513Z,98.20
2018-04-12T03:38:20.881Z,113.97
2018-04-12T03:40:49.321Z,110.97
2018-04-12T03:43:17.786Z,101.37
2018-04-12T03:45:46.156Z,102.53
2018-04-12T03:48:14.541Z,103.17
2018-04-12T03:50:42.922Z,104.67
2018-04-12T03:53:11.333Z,106.07
2018-04-12T03:55:39.739Z,103.90
2018-04-12T03:58:08.119Z,109.40
2018-04-12T04:00:36.501Z,106.23
2018-04-12T04:03:04.883Z,101.57
2018-04-12T04:05:33.332Z,97.53
2018-04-12T04:08:01.767Z,98.43
2018-04-12T04:10:30.138Z,103.17
2018-04-12T04:12:58.505Z,107.60
2018-04-12T04:15:38.549Z,99.60
2018-04-12T04:18:18.598Z,105.17
2018-04-12T04:20:58.793Z,96.07
2018-04-12T04:23:27.253Z,102.37
2018-04-12T04:25:55.697Z,107.07
2018-04-12T04:28:24.130Z,110.20
2018-04-12T04:30:52.521Z,114.73
2018-04-12T04:33:20.898Z,103.87
2018-04-12T04:35:49.287Z,115.50
2018-04-12T04:38:17.758Z,97.37
2018-04-12T04:40:46.144Z,111.70
2018-04-12T04:43:14.529Z,107.10
2018-04-12T04:45:42.953Z,105.50
2018-04-12T04:48:11.340Z,109.87
2018-04-12T04:50:39.746Z,118.00
2018-04-12T04:53:08.268Z,119.03
2018-04-12T04:55:36.667Z,113.97
2018-04-12T04:58:05.392Z,115.07
2018-04-12T05:00:34.541Z,108.77
2018-04-12T05:03:02.950Z,117.03
2018-04-12T05:05:31.310Z,114.70
2018-04-12T05:07:59.802Z,107.47
2018-04-12T05:10:29.444Z,104.93
2018-04-12T05:12:57.961Z,108.90
2018-04-12T05:15:26.419Z,114.70
2018-04-12T05:17:54.851Z,106.73
2018-04-12T05:20:23.285Z,112.60
2018-04-12T05:22:51.785Z,113.63
2018-04-12T05:25:20.217Z,103.83
2018-04-12T05:27:48.958Z,110.57
2018-04-12T05:30:17.321Z,119.37
2018-04-12T05:32:45.700Z,111.83
2018-04-12T05:35:14.110Z,111.30
2018-04-12T05:37:42.529Z,107.40
2018-04-12T05:40:10.959Z,119.20
2018-04-12T05:42:39.346Z,119.63
2018-04-12T05:45:08.822Z,131.80
2018-04-12T05:47:37.487Z,114.53
2018-04-12T05:50:05.937Z,108.90
2018-04-12T05:52:34.441Z,110.37
2018-04-12T05:55:03.081Z,105.87
2018-04-12T05:57:31.613Z,107.13
2018-04-12T06:00:00.006Z,106.73
2018-04-12T06:02:28.561Z,109.20
2018-04-12T06:04:57.017Z,102.90
2018-04-12T06:07:25.494Z,106.03
2018-04-12T06:09:53.911Z,107.50
2018-04-12T06:12:22.299Z,105.17
2018-04-12T06:14:50.818Z,107.03
2018-04-12T06:17:19.238Z,110.10
2018-04-12T06:19:47.684Z,107.80
2018-04-12T06:22:16.203Z,106.43
2018-04-12T06:24:46.425Z,109.70
2018-04-12T06:27:14.909Z,105.13
2018-04-12T06:29:43.321Z,108.70
2018-04-12T06:32:11.730Z,102.67
2018-04-12T06:34:40.129Z,99.40
2018-04-12T06:37:08.542Z,101.93
2018-04-12T06:39:37.251Z,100.10
2018-04-12T06:42:05.711Z,102.13
2018-04-12T06:44:34.141Z,103.07
2018-04-12T06:47:02.581Z,102.17
2018-04-12T06:49:31.033Z,107.63
2018-04-12T06:51:59.552Z,96.77
2018-04-12T06:54:28.123Z,98.47
2018-04-12T06:56:56.612Z,101.27
2018-04-12T06:59:25.089Z,104.67
2018-04-12T07:01:53.669Z,119.47
2018-04-12T07:04:22.180Z,109.50
2018-04-12T07:06:50.597Z,91.60
2018-04-12T07:09:19.372Z,99.47
2018-04-12T07:11:47.813Z,90.60
2018-04-12T07:14:16.206Z,95.00
2018-04-12T07:16:44.595Z,90.47
2018-04-12T07:19:13.211Z,88.80
2018-04-12T07:21:41.747Z,83.27
2018-04-12T07:24:10.231Z,85.40
2018-04-12T07:26:38.935Z,81.07
2018-04-12T07:29:07.333Z,84.07
2018-04-12T07:31:35.799Z,78.23
2018-04-12T07:34:06.972Z,81.63
2018-04-12T07:36:35.558Z,81.23
2018-04-12T07:39:04.007Z,86.57
2018-04-12T07:41:32.431Z,93.17
2018-04-12T07:44:00.956Z,87.60
2018-04-12T07:46:29.604Z,94.83
2018-04-12T07:48:58.029Z,85.93
2018-04-12T07:51:26.593Z,86.20
2018-04-12T07:53:54.995Z,95.73
2018-04-12T07:56:23.455Z,82.53
2018-04-12T07:58:51.816Z,85.57
2018-04-12T08:01:20.186Z,88.17
2018-04-12T08:03:48.548Z,100.80
2018-04-12T08:06:16.996Z,82.83
2018-04-12T08:08:45.436Z,85.30
2018-04-12T08:11:13.820Z,75.10
2018-04-12T08:13:42.221Z,83.57
2018-04-12T08:16:10.629Z,84.63
2018-04-12T08:18:39.029Z,81.77
2018-04-12T08:21:07.585Z,86.17
2018-04-12T08:23:36.041Z,80.40
2018-04-12T08:26:04.423Z,75.00
2018-04-12T08:28:32.891Z,74.23
2018-04-12T08:31:01.301Z,66.33
2018-04-12T08:33:29.829Z,70.47
2018-04-12T08:35:58.213Z,73.40
2018-04-12T08:38:26.628Z,67.20
2018-04-12T08:40:55.021Z,63.77
2018-04-12T08:43:23.422Z,67.90
2018-04-12T08:45:51.892Z,65.43
2018-04-12T08:48:20.273Z,71.60
2018-04-12T08:50:48.729Z,72.07
2018-04-12T08:53:17.133Z,78.37
2018-04-12T08:55:45.558Z,68.47
2018-04-12T08:58:13.951Z,74.93
2018-04-12T09:00:42.371Z,70.83
2018-04-12T09:03:10.911Z,67.67
2018-04-12T09:05:39.306Z,69.50
2018-04-12T09:08:08.408Z,74.73
2018-04-12T09:10:36.908Z,74.60
2018-04-12T09:13:05.330Z,73.63
2018-04-12T09:15:33.775Z,75.40
2018-04-12T09:18:02.242Z,65.87
2018-04-12T09:20:30.657Z,72.87
2018-04-12T09:22:59.058Z,69.90
2018-04-12T09:25:27.461Z,64.80
2018-04-12T09:27:55.914Z,63.97
2018-04-12T09:30:24.309Z,65.57
2018-04-12T09:32:52.730Z,58.77
2018-04-12T09:35:21.138Z,63.53
2018-04-12T09:37:49.519Z,59.07
2018-04-12T09:40:18.062Z,59.93
2018-04-12T09:42:46.491Z,56.40
2018-04-12T09:45:14.898Z,56.97
2018-04-12T09:47:43.369Z,64.27
2018-04-12T09:50:11.774Z,46.90
2018-04-12T09:52:40.217Z,55.27
2018-04-12T09:55:08.606Z,52.00
2018-04-12T09:57:37.150Z,47.93
2018-04-12T10:00:05.593Z,48.30
2018-04-12T10:05:36.352Z,48.80
2018-04-12T10:08:10.490Z,46.63
2018-04-12T10:10:38.865Z,46.00
2018-04-12T10:13:07.282Z,47.40
2018-04-12T10:15:35.768Z,45.57
2018-04-12T10:18:04.173Z,50.83
2018-04-12T10:20:32.638Z,45.83
2018-04-12T10:23:01.057Z,41.77
2018-04-12T10:25:29.463Z,42.97
2018-04-12T10:27:57.891Z,45.10
2018-04-12T10:30:26.297Z,49.53
2018-04-12T10:32:55.029Z,40.97
2018-04-12T10:35:23.579Z,45.53
2018-04-12T10:37:52.156Z,43.33
2018-04-12T10:40:20.935Z,42.03
2018-04-12T10:42:49.726Z,41.30
2018-04-12T10:45:18.556Z,42.80
2018-04-12T10:47:47.364Z,42.50
2018-04-12T10:50:16.009Z,43.60
2018-04-12T10:52:44.781Z,39.27
2018-04-12T10:55:13.631Z,41.63
2018-04-12T10:57:42.466Z,44.43
2018-04-12T11:00:11.344Z,43.57
2018-04-12T11:02:39.990Z,43.93
2018-04-12T11:05:08.552Z,48.43
2018-04-12T11:07:36.981Z,44.43
2018-04-12T11:10:05.564Z,47.73
2018-04-12T11:12:33.994Z,44.67
2018-04-12T11:15:02.489Z,46.10
2018-04-12T11:17:30.947Z,48.97
2018-04-12T11:19:59.398Z,45.90
2018-04-12T11:22:27.845Z,45.80
2018-04-12T11:24:56.258Z,52.20
2018-04-12T11:27:24.764Z,52.27
2018-04-12T11:29:53.197Z,51.83
2018-04-12T11:32:21.591Z,50.43
2018-04-12T11:34:50.056Z,51.10
2018-04-12T11:37:18.458Z,54.30
2018-04-12T11:39:46.951Z,47.50
2018-04-12T11:42:15.349Z,44.10
2018-04-12T11:44:43.789Z,41.47
2018-04-12T11:47:12.261Z,43.20
2018-04-12T11:49:40.693Z,48.03
2018-04-12T11:52:09.155Z,43.90
2018-04-12T11:54:37.546Z,35.77
2018-04-12T11:57:06.003Z,38.20
2018-04-12T11:59:34.410Z,37.83
2018-04-12T12:02:02.805Z,37.13
2018-04-12T12:04:31.398Z,38.30
2018-04-12T12:06:59.951Z,46.90
2018-04-12T12:09:28.313Z,44.30
2018-04-12T12:11:56.711Z,49.43
2018-04-12T12:14:25.173Z,38.13
2018-04-12T12:16:53.641Z,55.43
2018-04-12T12:19:22.101Z,37.40
2018-04-12T12:21:50.492Z,44.00
2018-04-12T12:24:18.908Z,39.83
2018-04-12T12:26:47.284Z,41.97
2018-04-12T12:29:15.746Z,42.30
2018-04-12T12:31:44.159Z,40.90
2018-04-12T12:34:12.591Z,42.03
2018-04-12T12:36:40.993Z,38.40
2018-04-12T12:39:09.522Z,34.73
2018-04-12T12:41:37.965Z,40.63
2018-04-12T12:44:06.363Z,44.60
2018-04-12T12:46:34.782Z,45.83
2018-04-12T12:49:03.181Z,40.60
2018-04-12T12:51:31.706Z,42.37
2018-04-12T12:54:00.244Z,42.13
2018-04-12T12:56:28.665Z,44.50
2018-04-12T12:58:57.186Z,45.57
2018-04-12T13:01:25.638Z,51.40
2018-04-12T13:03:54.126Z,40.27
2018-04-12T13:06:22.596Z,45.20
2018-04-12T13:08:50.997Z,48.93
2018-04-12T13:11:19.783Z,49.33
2018-04-12T13:13:48.206Z,47.73
2018-04-12T13:16:16.585Z,48.03
2018-04-12T13:18:45.055Z,45.67
2018-04-12T13:21:13.458Z,48.10
2018-04-12T13:23:41.921Z,44.47
2018-04-12T13:26:10.297Z,44.00
2018-04-12T13:28:38.690Z,44.83
2018-04-12T13:31:07.117Z,38.93
2018-04-12T13:33:35.516Z,42.33
2018-04-12T13:36:03.975Z,44.63
2018-04-12T13:38:32.384Z,44.17
2018-04-12T13:41:00.945Z,42.93
2018-04-12T13:43:29.337Z,42.70
2018-04-12T13:45:57.774Z,43.80
2018-04-12T13:48:26.241Z,51.00
2018-04-12T13:51:00.632Z,49.47
2018-04-12T13:53:29.132Z,47.63
2018-04-12T13:56:00.720Z,47.80
2018-04-12T13:58:29.252Z,46.30
2018-04-12T14:00:57.789Z,55.60
2018-04-12T14:03:26.351Z,45.20
2018-04-12T14:05:57.141Z,43.60
2018-04-12T14:08:25.602Z,46.20
2018-04-12T14:10:54.644Z,45.70
2018-04-12T14:13:23.685Z,55.10
2018-04-12T14:15:52.210Z,58.97
2018-04-12T14:18:20.889Z,48.10
2018-04-12T14:20:49.425Z,46.80
2018-04-12T14:23:18.022Z,51.50
2018-04-12T14:25:46.432Z,46.10
2018-04-12T14:28:14.873Z,60.03
2018-04-12T14:30:43.248Z,51.80
2018-04-12T14:33:11.935Z,51.30
2018-04-12T14:35:40.453Z,47.00
2018-04-12T14:38:08.859Z,44.70
2018-04-12T14:40:37.367Z,48.87
2018-04-12T14:43:05.763Z,45.77
2018-04-12T14:45:34.250Z,48.30
2018-04-12T14:48:02.666Z,41.17
2018-04-12T14:50:31.148Z,52.10
2018-04-12T14:53:00.596Z,44.83
2018-04-12T14:55:29.162Z,49.83
2018-04-12T14:57:57.647Z,47.00
2018-04-12T15:00:26.065Z,42.77
2018-04-12T15:02:54.577Z,45.80
2018-04-12T15:05:22.997Z,57.20
2018-04-12T15:07:51.438Z,48.10
2018-04-12T15:10:19.890Z,41.97
2018-04-12T15:12:48.367Z,44.10
2018-04-12T15:15:18.710Z,39.33
2018-04-12T15:17:47.127Z,41.90
2018-04-12T15:20:15.730Z,39.53
2018-04-12T15:22:45.094Z,46.07
2018-04-12T15:25:13.536Z,53.20
2018-04-12T15:27:42.075Z,37.80
2018-04-12T15:30:10.539Z,41.57
2018-04-12T15:32:39.144Z,42.97
2018-04-12T15:35:07.611Z,39.77
2018-04-12T15:37:37.001Z,38.33
2018-04-12T15:40:05.418Z,37.90
2018-04-12T15:42:34.786Z,40.10
2018-04-12T15:45:03.260Z,39.70
2018-04-12T15:47:32.598Z,34.17
2018-04-12T15:50:01.070Z,40.30
2018-04-12T15:52:29.499Z,38.30
2018-04-12T15:54:57.977Z,38.87
2018-04-12T15:57:26.489Z,39.73
2018-04-12T15:59:54.917Z,39.60
2018-04-12T16:02:28.839Z,38.70
2018-04-12T16:04:59.384Z,37.40
2018-04-12T16:07:27.885Z,37.37
2018-04-12T16:09:56.426Z,32.50
2018-04-12T16:12:24.849Z,39.57
2018-04-12T16:14:53.520Z,36.90
2018-04-12T16:17:23.475Z,34.07
2018-04-12T16:19:51.885Z,35.67
2018-04-12T16:22:20.284Z,37.10
2018-04-12T16:24:48.663Z,34.43
2018-04-12T16:27:17.134Z,38.33
2018-04-12T16:29:45.593Z,34.00
2018-04-12T16:32:13.992Z,49.90
2018-04-12T16:34:42.363Z,34.70
2018-04-12T16:37:13.717Z,30.97
2018-04-12T16:39:42.253Z,38.47
2018-04-12T16:42:10.620Z,30.13
2018-04-12T16:44:39.171Z,39.50
2018-04-12T16:47:08.055Z,33.67
2018-04-12T16:49:37.379Z,33.63
2018-04-12T16:52:05.801Z,31.53
2018-04-12T16:54:34.197Z,34.27
2018-04-12T16:57:02.675Z,32.33
2018-04-12T16:59:31.475Z,35.33
2018-04-12T17:02:00.057Z,37.60
2018-04-12T17:04:28.450Z,36.00
2018-04-12T17:06:56.890Z,33.27
2018-04-12T17:09:25.370Z,32.23
2018-04-12T17:11:53.786Z,26.03
2018-04-12T17:14:22.213Z,32.70
2018-04-12T17:16:50.754Z,31.80
2018-04-12T17:19:19.257Z,40.20
2018-04-12T17:21:47.742Z,28.97
2018-04-12T17:24:16.214Z,27.33
2018-04-12T17:26:44.589Z,19.97
2018-04-12T17:29:12.982Z,30.37
2018-04-12T17:31:41.452Z,24.67
2018-04-12T17:34:09.825Z,26.60
2018-04-12T17:36:38.204Z,27.13
2018-04-12T17:39:06.716Z,27.10
2018-04-12T17:41:35.086Z,37.60
2018-04-12T17:44:03.545Z,31.27
2018-04-12T17:46:31.946Z,15.47
2018-04-12T17:49:00.330Z,22.57
2018-04-12T17:51:28.701Z,21.93
2018-04-12T17:53:57.912Z,21.40
2018-04-12T17:56:26.292Z,21.70
2018-04-12T17:58:54.698Z,18.87
2018-04-12T18:01:23.067Z,16.07
2018-04-12T18:03:51.434Z,23.37
2018-04-12T18:06:19.906Z,22.53
2018-04-12T18:08:48.583Z,21.83
2018-04-12T18:11:16.942Z,18.43
2018-04-12T18:13:45.309Z,19.13
2018-04-12T18:16:13.940Z,20.50
2018-04-12T18:18:42.348Z,16.53
2018-04-12T18:21:10.800Z,18.03
2018-04-12T18:23:39.194Z,12.10
2018-04-12T18:26:07.581Z,9.10
2018-04-12T18:28:35.968Z,13.83
2018-04-12T18:31:04.381Z,13.60
2018-04-12T18:33:32.796Z,11.83
2018-04-12T18:36:01.409Z,30.87
2018-04-12T18:38:29.821Z,9.87
2018-04-12T18:40:58.158Z,15.37
2018-04-12T18:43:26.533Z,14.07
2018-04-12T18:45:54.903Z,8.57
2018-04-12T18:48:23.326Z,12.73
2018-04-12T18:50:52.855Z,10.90
2018-04-12T18:53:21.235Z,12.33
2018-04-12T18:55:49.616Z,9.87
2018-04-12T18:58:18.003Z,13.17
2018-04-12T19:00:46.628Z,16.73
2018-04-12T19:03:15.033Z,8.40
2018-04-12T19:05:43.439Z,19.40
2018-04-12T19:08:12.414Z,9.37
2018-04-12T19:10:40.861Z,9.87
2018-04-12T19:13:09.317Z,20.17
2018-04-12T19:15:37.824Z,9.63
2018-04-12T19:18:06.404Z,11.70
2018-04-12T19:20:34.831Z,10.60
2018-04-12T19:23:03.259Z,9.80
2018-04-12T19:25:31.696Z,12.23
2018-04-12T19:28:00.096Z,15.73
2018-04-12T19:30:31.706Z,7.90
2018-04-12T19:33:00.097Z,23.50
2018-04-12T19:35:28.868Z,45.23
2018-04-12T19:37:57.282Z,39.90
2018-04-12T19:40:25.674Z,43.83
2018-04-12T19:42:54.106Z,24.80
2018-04-12T19:45:22.584Z,31.70
2018-04-12T19:47:51.160Z,27.43
2018-04-12T19:50:19.721Z,18.03
2018-04-12T19:52:48.256Z,18.23
2018-04-12T19:55:16.671Z,15.90
2018-04-12T19:57:45.081Z,18.67
2018-04-12T20:00:13.830Z,12.03
2018-04-12T20:02:42.271Z,13.13
2018-04-12T20:05:10.776Z,11.50
2018-04-12T20:07:39.217Z,18.47
2018-04-12T20:10:07.617Z,11.63
2018-04-12T20:12:36.081Z,13.10
2018-04-12T20:15:04.464Z,13.50
2018-04-12T20:17:32.865Z,9.13
2018-04-12T20:20:01.443Z,9.13
2018-04-12T20:22:29.962Z,15.87
2018-04-12T20:24:58.532Z,11.07
2018-04-12T20:27:27.797Z,8.27
2018-04-12T20:29:56.178Z,11.77
2018-04-12T20:32:24.570Z,10.00
2018-04-12T20:34:52.965Z,6.43
2018-04-12T20:37:21.447Z,12.77
2018-04-12T20:39:49.853Z,16.40
2018-04-12T20:42:18.237Z,14.43
2018-04-12T20:44:46.713Z,10.83
2018-04-12T20:47:15.111Z,9.13
2018-04-12T20:49:43.827Z,15.83
2018-04-12T20:52:12.400Z,22.50
2018-04-12T20:54:40.836Z,7.10
2018-04-12T20:57:09.227Z,6.23
2018-04-12T20:59:37.582Z,9.03
2018-04-12T21:02:06.020Z,13.60
2018-04-12T21:04:34.382Z,8.23
2018-04-12T21:07:02.785Z,15.67
2018-04-12T21:09:31.160Z,15.23
2018-04-12T21:11:59.566Z,6.53
2018-04-12T21:14:27.924Z,12.90
2018-04-12T21:16:56.381Z,8.30
2018-04-12T21:19:24.796Z,11.67
2018-04-12T21:21:53.248Z,25.87
2018-04-12T21:24:21.671Z,14.40
2018-04-12T21:26:50.135Z,7.40
2018-04-12T21:29:18.696Z,11.03
2018-04-12T21:31:47.323Z,8.77
2018-04-12T21:34:15.750Z,14.33
2018-04-12T21:36:44.123Z,9.00
2018-04-12T21:39:12.466Z,7.87
2018-04-12T21:41:40.902Z,14.57
2018-04-12T21:44:09.286Z,17.97
2018-04-12T21:46:37.687Z,9.07
2018-04-12T21:49:06.233Z,9.40
2018-04-12T21:51:34.611Z,9.97
2018-04-12T21:54:02.998Z,5.90
2018-04-12T21:56:31.407Z,7.50
2018-04-12T21:58:59.793Z,14.70
2018-04-12T22:01:28.257Z,10.53
2018-04-12T22:03:56.705Z,7.73
2018-04-12T22:06:25.161Z,10.20
2018-04-12T22:08:53.554Z,12.93
2018-04-12T22:11:22.083Z,9.20
2018-04-12T22:13:50.490Z,12.37
2018-04-12T22:16:18.891Z,9.03
2018-04-12T22:18:47.294Z,6.90
2018-04-12T22:21:15.692Z,9.10
2018-04-12T22:23:44.574Z,13.53
2018-04-12T22:26:13.041Z,8.63
2018-04-12T22:28:41.440Z,8.83
2018-04-12T22:31:10.741Z,10.13
2018-04-12T22:33:39.124Z,9.17
2018-04-12T22:36:07.635Z,12.33
2018-04-12T22:38:36.036Z,13.43
2018-04-12T22:41:04.411Z,6.73
2018-04-12T22:43:32.828Z,16.93
2018-04-12T22:46:01.225Z,8.90
2018-04-12T22:48:29.615Z,16.73
2018-04-12T22:50:58.048Z,6.10
2018-04-12T22:53:26.405Z,5.17
2018-04-12T22:55:54.843Z,11.10
2018-04-12T22:58:23.283Z,18.97
2018-04-12T23:00:51.658Z,10.60
2018-04-12T23:03:21.047Z,9.13
2018-04-12T23:05:49.436Z,7.23
2018-04-12T23:08:17.866Z,10.57
2018-04-12T23:10:46.308Z,5.10
2018-04-12T23:13:14.748Z,5.07
2018-04-12T23:15:43.268Z,11.90
2018-04-12T23:18:11.693Z,6.43
2018-04-12T23:20:40.051Z,7.53
2018-04-12T23:23:08.446Z,7.63
2018-04-12T23:25:37.065Z,7.87
2018-04-12T23:28:05.431Z,6.90
2018-04-12T23:30:33.782Z,4.80
2018-04-12T23:33:02.293Z,3.07
2018-04-12T23:35:30.636Z,4.90
2018-04-12T23:37:59.007Z,5.80
2018-04-12T23:40:27.357Z,4.50
2018-04-12T23:42:55.718Z,5.00
2018-04-12T23:45:24.108Z,2.20
2018-04-12T23:47:52.501Z,4.63
2018-04-12T23:50:20.894Z,6.67
2018-04-12T23:52:49.249Z,5.40
2018-04-12T23:55:17.609Z,1.83
2018-04-12T23:57:45.954Z,5.10
